sensor_id;sensor_type;location;lat;lon;timestamp;pressure;altitude;pressure_sealevel;temperature;humidity
59650;BME280;46162;57.568;25.814;2023-04-22T00:02:13;100861.63;;;5.70;100.00
59650;BME280;46162;57.568;25.814;2023-04-22T00:04:43;100856.75;;;5.75;100.00
59650;BME280;46162;57.568;25.814;2023-04-22T00:07:14;100857.00;;;5.72;100.00
59650;BME280;46162;57.568;25.814;2023-04-22T00:09:43;100854.91;;;5.65;100.00
59650;BME280;46162;57.568;25.814;2023-04-22T00:12:11;100853.25;;;4.66;100.00
59650;BME280;46162;57.568;25.814;2023-04-22T00:14:40;100857.19;;;4.73;100.00
59650;BME280;46162;57.568;25.814;2023-04-22T00:17:09;100845.63;;;4.60;100.00
59650;BME280;46162;57.568;25.814;2023-04-22T00:19:39;100845.34;;;4.51;100.00
59650;BME280;46162;57.568;25.814;2023-04-22T00:22:08;100853.38;;;4.26;100.00
59650;BME280;46162;57.568;25.814;2023-04-22T00:24:37;100842.81;;;4.12;100.00
59650;BME280;46162;57.568;25.814;2023-04-22T00:27:05;100848.47;;;4.07;100.00
59650;BME280;46162;57.568;25.814;2023-04-22T00:29:34;100844.63;;;4.11;100.00
59650;BME280;46162;57.568;25.814;2023-04-22T00:32:03;100843.97;;;4.33;100.00
59650;BME280;46162;57.568;25.814;2023-04-22T00:34:32;100836.25;;;4.54;100.00
59650;BME280;46162;57.568;25.814;2023-04-22T00:37:02;100841.38;;;4.70;100.00
59650;BME280;46162;57.568;25.814;2023-04-22T00:39:30;100832.97;;;4.87;100.00
59650;BME280;46162;57.568;25.814;2023-04-22T00:41:59;100831.94;;;5.01;100.00
59650;BME280;46162;57.568;25.814;2023-04-22T00:44:29;100838.66;;;5.07;100.00
59650;BME280;46162;57.568;25.814;2023-04-22T00:46:58;100833.31;;;5.07;100.00
59650;BME280;46162;57.568;25.814;2023-04-22T00:49:26;100836.28;;;5.15;100.00
59650;BME280;46162;57.568;25.814;2023-04-22T00:51:55;100839.34;;;4.98;100.00
59650;BME280;46162;57.568;25.814;2023-04-22T00:54:25;100837.78;;;4.45;100.00
59650;BME280;46162;57.568;25.814;2023-04-22T00:56:55;100829.00;;;4.18;100.00
59650;BME280;46162;57.568;25.814;2023-04-22T00:59:25;100830.72;;;3.93;100.00
59650;BME280;46162;57.568;25.814;2023-04-22T01:01:54;100830.47;;;3.71;100.00
59650;BME280;46162;57.568;25.814;2023-04-22T01:04:23;100824.19;;;3.72;100.00
59650;BME280;46162;57.568;25.814;2023-04-22T01:06:52;100822.81;;;3.79;100.00
59650;BME280;46162;57.568;25.814;2023-04-22T01:09:21;100830.44;;;3.58;100.00
59650;BME280;46162;57.568;25.814;2023-04-22T01:11:50;100826.59;;;3.49;100.00
59650;BME280;46162;57.568;25.814;2023-04-22T01:14:19;100831.16;;;3.47;100.00
59650;BME280;46162;57.568;25.814;2023-04-22T01:16:48;100824.91;;;3.34;100.00
59650;BME280;46162;57.568;25.814;2023-04-22T01:19:17;100821.00;;;3.39;100.00
59650;BME280;46162;57.568;25.814;2023-04-22T01:21:46;100823.72;;;3.52;100.00
59650;BME280;46162;57.568;25.814;2023-04-22T01:24:19;100816.03;;;3.60;100.00
59650;BME280;46162;57.568;25.814;2023-04-22T01:26:48;100815.72;;;3.65;100.00
59650;BME280;46162;57.568;25.814;2023-04-22T01:29:16;100821.91;;;3.65;100.00
59650;BME280;46162;57.568;25.814;2023-04-22T01:31:45;100810.28;;;3.66;100.00
59650;BME280;46162;57.568;25.814;2023-04-22T01:34:15;100812.84;;;3.68;100.00
59650;BME280;46162;57.568;25.814;2023-04-22T01:36:43;100819.97;;;3.55;100.00
59650;BME280;46162;57.568;25.814;2023-04-22T01:39:12;100811.09;;;3.41;100.00
59650;BME280;46162;57.568;25.814;2023-04-22T01:41:42;100807.16;;;3.47;100.00
59650;BME280;46162;57.568;25.814;2023-04-22T01:44:10;100805.03;;;3.52;100.00
59650;BME280;46162;57.568;25.814;2023-04-22T01:46:39;100805.78;;;3.54;100.00
59650;BME280;46162;57.568;25.814;2023-04-22T01:49:07;100807.25;;;3.58;100.00
59650;BME280;46162;57.568;25.814;2023-04-22T01:51:36;100802.69;;;3.60;100.00
59650;BME280;46162;57.568;25.814;2023-04-22T01:54:05;100806.53;;;3.56;100.00
59650;BME280;46162;57.568;25.814;2023-04-22T01:56:34;100799.69;;;3.52;100.00
59650;BME280;46162;57.568;25.814;2023-04-22T01:59:04;100801.19;;;3.56;100.00
59650;BME280;46162;57.568;25.814;2023-04-22T02:01:35;100803.31;;;3.51;100.00
59650;BME280;46162;57.568;25.814;2023-04-22T02:04:05;100803.63;;;3.47;100.00
59650;BME280;46162;57.568;25.814;2023-04-22T02:06:34;100800.50;;;3.40;100.00
59650;BME280;46162;57.568;25.814;2023-04-22T02:09:04;100801.84;;;3.20;100.00
59650;BME280;46162;57.568;25.814;2023-04-22T02:11:33;100799.31;;;3.04;100.00
59650;BME280;46162;57.568;25.814;2023-04-22T02:14:02;100802.97;;;2.89;100.00
59650;BME280;46162;57.568;25.814;2023-04-22T02:16:31;100798.31;;;2.92;100.00
59650;BME280;46162;57.568;25.814;2023-04-22T02:19:00;100814.03;;;2.97;100.00
59650;BME280;46162;57.568;25.814;2023-04-22T02:21:29;100814.84;;;2.85;100.00
59650;BME280;46162;57.568;25.814;2023-04-22T02:23:58;100813.69;;;2.74;100.00
59650;BME280;46162;57.568;25.814;2023-04-22T02:26:27;100812.66;;;2.77;100.00
59650;BME280;46162;57.568;25.814;2023-04-22T02:28:57;100814.56;;;2.75;100.00
59650;BME280;46162;57.568;25.814;2023-04-22T02:31:26;100813.72;;;2.60;100.00
59650;BME280;46162;57.568;25.814;2023-04-22T02:33:56;100815.94;;;2.39;100.00
59650;BME280;46162;57.568;25.814;2023-04-22T02:36:25;100817.75;;;2.39;100.00
59650;BME280;46162;57.568;25.814;2023-04-22T02:38:54;100806.69;;;2.45;100.00
59650;BME280;46162;57.568;25.814;2023-04-22T02:41:23;100820.78;;;2.47;100.00
59650;BME280;46162;57.568;25.814;2023-04-22T02:43:52;100826.78;;;2.36;100.00
59650;BME280;46162;57.568;25.814;2023-04-22T02:46:21;100815.84;;;2.26;100.00
59650;BME280;46162;57.568;25.814;2023-04-22T02:48:49;100815.09;;;2.24;100.00
59650;BME280;46162;57.568;25.814;2023-04-22T02:51:21;100817.75;;;2.39;100.00
59650;BME280;46162;57.568;25.814;2023-04-22T02:53:50;100811.94;;;2.18;100.00
59650;BME280;46162;57.568;25.814;2023-04-22T02:56:19;100820.88;;;2.02;100.00
59650;BME280;46162;57.568;25.814;2023-04-22T02:58:48;100814.31;;;1.93;100.00
59650;BME280;46162;57.568;25.814;2023-04-22T03:01:17;100814.13;;;2.11;100.00
59650;BME280;46162;57.568;25.814;2023-04-22T03:03:46;100809.09;;;2.21;100.00
59650;BME280;46162;57.568;25.814;2023-04-22T03:06:21;100818.91;;;2.20;100.00
59650;BME280;46162;57.568;25.814;2023-04-22T03:08:50;100813.19;;;2.26;100.00
59650;BME280;46162;57.568;25.814;2023-04-22T03:11:19;100810.16;;;2.18;100.00
59650;BME280;46162;57.568;25.814;2023-04-22T03:13:48;100808.25;;;2.20;100.00
59650;BME280;46162;57.568;25.814;2023-04-22T03:16:17;100813.09;;;2.13;100.00
59650;BME280;46162;57.568;25.814;2023-04-22T03:18:46;100805.88;;;2.15;100.00
59650;BME280;46162;57.568;25.814;2023-04-22T03:21:15;100810.91;;;2.06;100.00
59650;BME280;46162;57.568;25.814;2023-04-22T03:23:45;100814.63;;;2.03;100.00
59650;BME280;46162;57.568;25.814;2023-04-22T03:26:14;100809.75;;;1.96;100.00
59650;BME280;46162;57.568;25.814;2023-04-22T03:28:43;100801.19;;;1.90;100.00
59650;BME280;46162;57.568;25.814;2023-04-22T03:31:11;100808.72;;;1.98;100.00
59650;BME280;46162;57.568;25.814;2023-04-22T03:33:40;100809.75;;;1.96;100.00
59650;BME280;46162;57.568;25.814;2023-04-22T03:36:17;100808.88;;;1.95;100.00
59650;BME280;46162;57.568;25.814;2023-04-22T03:38:49;100813.16;;;1.98;100.00
59650;BME280;46162;57.568;25.814;2023-04-22T03:41:18;100812.22;;;1.99;100.00
59650;BME280;46162;57.568;25.814;2023-04-22T03:43:47;100814.69;;;2.02;100.00
59650;BME280;46162;57.568;25.814;2023-04-22T03:46:16;100813.47;;;2.07;100.00
59650;BME280;46162;57.568;25.814;2023-04-22T03:49:07;100819.75;;;2.06;100.00
59650;BME280;46162;57.568;25.814;2023-04-22T03:51:36;100817.16;;;2.05;100.00
59650;BME280;46162;57.568;25.814;2023-04-22T03:54:11;100825.53;;;2.27;100.00
59650;BME280;46162;57.568;25.814;2023-04-22T03:56:46;100828.59;;;2.50;100.00
59650;BME280;46162;57.568;25.814;2023-04-22T03:59:16;100826.09;;;2.61;100.00
59650;BME280;46162;57.568;25.814;2023-04-22T04:01:45;100835.41;;;2.68;100.00
59650;BME280;46162;57.568;25.814;2023-04-22T04:04:18;100835.47;;;2.81;100.00
59650;BME280;46162;57.568;25.814;2023-04-22T04:06:57;100823.19;;;2.93;100.00
59650;BME280;46162;57.568;25.814;2023-04-22T04:09:28;100830.75;;;2.99;100.00
59650;BME280;46162;57.568;25.814;2023-04-22T04:11:57;100834.19;;;3.01;100.00
59650;BME280;46162;57.568;25.814;2023-04-22T04:14:30;100833.25;;;3.02;100.00
59650;BME280;46162;57.568;25.814;2023-04-22T04:16:59;100834.66;;;3.08;100.00
59650;BME280;46162;57.568;25.814;2023-04-22T04:19:30;100833.09;;;3.18;100.00
59650;BME280;46162;57.568;25.814;2023-04-22T04:22:01;100833.56;;;3.25;100.00
59650;BME280;46162;57.568;25.814;2023-04-22T04:24:36;100819.41;;;3.37;100.00
59650;BME280;46162;57.568;25.814;2023-04-22T04:27:15;100823.78;;;3.51;100.00
59650;BME280;46162;57.568;25.814;2023-04-22T04:29:50;100829.28;;;3.62;100.00
59650;BME280;46162;57.568;25.814;2023-04-22T04:32:32;100824.94;;;3.74;100.00
59650;BME280;46162;57.568;25.814;2023-04-22T04:35:06;100821.84;;;3.93;100.00
59650;BME280;46162;57.568;25.814;2023-04-22T04:37:36;100824.50;;;4.05;100.00
59650;BME280;46162;57.568;25.814;2023-04-22T04:40:10;100826.22;;;4.19;100.00
59650;BME280;46162;57.568;25.814;2023-04-22T04:42:58;100827.06;;;4.32;100.00
59650;BME280;46162;57.568;25.814;2023-04-22T04:45:34;100829.75;;;4.45;100.00
59650;BME280;46162;57.568;25.814;2023-04-22T04:48:05;100831.56;;;4.58;100.00
59650;BME280;46162;57.568;25.814;2023-04-22T04:50:42;100835.03;;;4.71;100.00
59650;BME280;46162;57.568;25.814;2023-04-22T04:53:11;100827.44;;;4.78;100.00
59650;BME280;46162;57.568;25.814;2023-04-22T04:55:43;100823.00;;;4.89;100.00
59650;BME280;46162;57.568;25.814;2023-04-22T04:58:19;100828.84;;;4.94;100.00
59650;BME280;46162;57.568;25.814;2023-04-22T05:00:58;100827.81;;;4.97;100.00
59650;BME280;46162;57.568;25.814;2023-04-22T05:03:27;100835.88;;;5.08;100.00
59650;BME280;46162;57.568;25.814;2023-04-22T05:05:56;100831.91;;;5.14;100.00
59650;BME280;46162;57.568;25.814;2023-04-22T05:08:25;100837.56;;;5.22;100.00
59650;BME280;46162;57.568;25.814;2023-04-22T05:11:02;100843.94;;;5.32;100.00
59650;BME280;46162;57.568;25.814;2023-04-22T05:13:31;100834.47;;;5.39;100.00
59650;BME280;46162;57.568;25.814;2023-04-22T05:16:00;100837.41;;;5.48;100.00
59650;BME280;46162;57.568;25.814;2023-04-22T05:18:30;100833.72;;;5.62;100.00
59650;BME280;46162;57.568;25.814;2023-04-22T05:21:04;100837.75;;;5.67;100.00
59650;BME280;46162;57.568;25.814;2023-04-22T05:23:34;100838.41;;;5.82;100.00
59650;BME280;46162;57.568;25.814;2023-04-22T05:26:06;100844.69;;;5.94;100.00
59650;BME280;46162;57.568;25.814;2023-04-22T05:28:38;100830.69;;;6.01;100.00
59650;BME280;46162;57.568;25.814;2023-04-22T05:31:07;100834.47;;;6.10;100.00
59650;BME280;46162;57.568;25.814;2023-04-22T05:33:36;100834.34;;;6.23;100.00
59650;BME280;46162;57.568;25.814;2023-04-22T05:36:06;100833.78;;;6.31;100.00
59650;BME280;46162;57.568;25.814;2023-04-22T05:38:34;100833.66;;;6.43;100.00
59650;BME280;46162;57.568;25.814;2023-04-22T05:41:05;100832.78;;;6.54;100.00
59650;BME280;46162;57.568;25.814;2023-04-22T05:43:34;100830.47;;;6.61;100.00
59650;BME280;46162;57.568;25.814;2023-04-22T05:46:11;100830.13;;;6.65;100.00
59650;BME280;46162;57.568;25.814;2023-04-22T05:48:41;100829.34;;;6.75;100.00
59650;BME280;46162;57.568;25.814;2023-04-22T05:51:27;100828.97;;;6.91;100.00
59650;BME280;46162;57.568;25.814;2023-04-22T05:53:55;100825.06;;;6.95;100.00
59650;BME280;46162;57.568;25.814;2023-04-22T05:56:25;100833.94;;;7.06;100.00
59650;BME280;46162;57.568;25.814;2023-04-22T05:58:55;100825.59;;;7.21;100.00
59650;BME280;46162;57.568;25.814;2023-04-22T06:01:24;100829.22;;;7.31;100.00
59650;BME280;46162;57.568;25.814;2023-04-22T06:03:59;100821.63;;;7.47;100.00
59650;BME280;46162;57.568;25.814;2023-04-22T06:06:29;100812.75;;;7.57;100.00
59650;BME280;46162;57.568;25.814;2023-04-22T06:08:58;100815.88;;;7.73;100.00
59650;BME280;46162;57.568;25.814;2023-04-22T06:11:28;100815.81;;;7.84;100.00
59650;BME280;46162;57.568;25.814;2023-04-22T06:13:58;100809.38;;;7.96;100.00
59650;BME280;46162;57.568;25.814;2023-04-22T06:16:27;100805.19;;;8.04;100.00
59650;BME280;46162;57.568;25.814;2023-04-22T06:18:56;100802.84;;;8.20;100.00
59650;BME280;46162;57.568;25.814;2023-04-22T06:21:25;100807.03;;;8.34;100.00
59650;BME280;46162;57.568;25.814;2023-04-22T06:23:55;100804.16;;;8.47;100.00
59650;BME280;46162;57.568;25.814;2023-04-22T06:26:24;100800.81;;;8.64;100.00
59650;BME280;46162;57.568;25.814;2023-04-22T06:28:54;100801.81;;;8.73;100.00
59650;BME280;46162;57.568;25.814;2023-04-22T06:31:23;100802.97;;;8.80;100.00
59650;BME280;46162;57.568;25.814;2023-04-22T06:33:52;100803.00;;;8.90;100.00
59650;BME280;46162;57.568;25.814;2023-04-22T06:36:21;100805.16;;;8.96;100.00
59650;BME280;46162;57.568;25.814;2023-04-22T06:38:55;100807.44;;;9.10;100.00
59650;BME280;46162;57.568;25.814;2023-04-22T06:41:43;100811.13;;;9.19;100.00
59650;BME280;46162;57.568;25.814;2023-04-22T06:44:39;100812.84;;;9.30;100.00
59650;BME280;46162;57.568;25.814;2023-04-22T06:47:27;100807.63;;;9.38;100.00
59650;BME280;46162;57.568;25.814;2023-04-22T06:50:19;100811.44;;;9.45;100.00
59650;BME280;46162;57.568;25.814;2023-04-22T06:52:54;100804.22;;;9.55;100.00
59650;BME280;46162;57.568;25.814;2023-04-22T06:55:23;100805.75;;;9.67;100.00
59650;BME280;46162;57.568;25.814;2023-04-22T06:57:52;100801.78;;;9.72;100.00
59650;BME280;46162;57.568;25.814;2023-04-22T07:00:22;100813.13;;;9.85;100.00
59650;BME280;46162;57.568;25.814;2023-04-22T07:02:51;100808.28;;;9.88;100.00
59650;BME280;46162;57.568;25.814;2023-04-22T07:05:21;100803.16;;;9.95;100.00
59650;BME280;46162;57.568;25.814;2023-04-22T07:07:50;100798.91;;;10.02;100.00
59650;BME280;46162;57.568;25.814;2023-04-22T07:10:20;100806.25;;;10.10;100.00
59650;BME280;46162;57.568;25.814;2023-04-22T07:13:09;100806.94;;;10.22;100.00
59650;BME280;46162;57.568;25.814;2023-04-22T07:15:40;100804.50;;;10.28;100.00
59650;BME280;46162;57.568;25.814;2023-04-22T07:18:08;100800.53;;;10.32;100.00
59650;BME280;46162;57.568;25.814;2023-04-22T07:20:37;100807.84;;;10.50;100.00
59650;BME280;46162;57.568;25.814;2023-04-22T07:23:05;100795.47;;;10.57;100.00
59650;BME280;46162;57.568;25.814;2023-04-22T07:25:34;100794.63;;;10.57;100.00
59650;BME280;46162;57.568;25.814;2023-04-22T07:28:03;100795.47;;;10.57;100.00
59650;BME280;46162;57.568;25.814;2023-04-22T07:30:31;100802.69;;;10.66;100.00
59650;BME280;46162;57.568;25.814;2023-04-22T07:33:01;100794.28;;;10.69;100.00
59650;BME280;46162;57.568;25.814;2023-04-22T07:35:30;100797.06;;;10.77;100.00
59650;BME280;46162;57.568;25.814;2023-04-22T07:37:59;100797.94;;;10.78;100.00
59650;BME280;46162;57.568;25.814;2023-04-22T07:40:27;100793.47;;;10.87;100.00
59650;BME280;46162;57.568;25.814;2023-04-22T07:42:56;100799.25;;;10.92;100.00
59650;BME280;46162;57.568;25.814;2023-04-22T07:45:24;100793.66;;;11.03;100.00
59650;BME280;46162;57.568;25.814;2023-04-22T07:47:53;100789.09;;;11.04;100.00
59650;BME280;46162;57.568;25.814;2023-04-22T07:50:23;100786.34;;;11.13;100.00
59650;BME280;46162;57.568;25.814;2023-04-22T07:52:52;100785.88;;;11.18;100.00
59650;BME280;46162;57.568;25.814;2023-04-22T07:55:20;100786.56;;;11.20;100.00
59650;BME280;46162;57.568;25.814;2023-04-22T07:57:49;100788.97;;;11.23;100.00
59650;BME280;46162;57.568;25.814;2023-04-22T08:00:18;100783.63;;;11.31;100.00
59650;BME280;46162;57.568;25.814;2023-04-22T08:02:46;100781.38;;;11.45;100.00
59650;BME280;46162;57.568;25.814;2023-04-22T08:05:15;100786.69;;;11.54;100.00
59650;BME280;46162;57.568;25.814;2023-04-22T08:07:45;100776.44;;;11.58;100.00
59650;BME280;46162;57.568;25.814;2023-04-22T08:10:14;100781.97;;;11.74;100.00
59650;BME280;46162;57.568;25.814;2023-04-22T08:12:42;100783.44;;;11.87;100.00
59650;BME280;46162;57.568;25.814;2023-04-22T08:15:11;100772.63;;;11.87;100.00
59650;BME280;46162;57.568;25.814;2023-04-22T08:17:40;100773.88;;;11.92;100.00
59650;BME280;46162;57.568;25.814;2023-04-22T08:20:09;100780.44;;;11.90;100.00
59650;BME280;46162;57.568;25.814;2023-04-22T08:22:37;100775.41;;;11.95;100.00
59650;BME280;46162;57.568;25.814;2023-04-22T08:25:08;100773.75;;;12.02;100.00
59650;BME280;46162;57.568;25.814;2023-04-22T08:27:37;100771.72;;;12.04;100.00
59650;BME280;46162;57.568;25.814;2023-04-22T08:30:08;100775.66;;;12.10;100.00
59650;BME280;46162;57.568;25.814;2023-04-22T08:32:37;100767.63;;;12.26;100.00
59650;BME280;46162;57.568;25.814;2023-04-22T08:35:06;100770.69;;;12.31;100.00
59650;BME280;46162;57.568;25.814;2023-04-22T08:37:35;100775.34;;;12.39;100.00
59650;BME280;46162;57.568;25.814;2023-04-22T08:40:05;100768.19;;;12.38;100.00
59650;BME280;46162;57.568;25.814;2023-04-22T08:42:36;100766.66;;;12.35;100.00
59650;BME280;46162;57.568;25.814;2023-04-22T08:45:05;100760.75;;;12.32;100.00
59650;BME280;46162;57.568;25.814;2023-04-22T08:47:36;100758.75;;;12.42;100.00
59650;BME280;46162;57.568;25.814;2023-04-22T08:50:06;100755.69;;;12.37;100.00
59650;BME280;46162;57.568;25.814;2023-04-22T08:52:36;100756.06;;;12.50;100.00
59650;BME280;46162;57.568;25.814;2023-04-22T08:55:05;100766.94;;;12.58;100.00
59650;BME280;46162;57.568;25.814;2023-04-22T08:57:37;100756.50;;;12.72;100.00
59650;BME280;46162;57.568;25.814;2023-04-22T09:00:07;100748.72;;;12.68;100.00
59650;BME280;46162;57.568;25.814;2023-04-22T09:02:37;100750.75;;;12.83;100.00
59650;BME280;46162;57.568;25.814;2023-04-22T09:05:12;100755.19;;;12.84;100.00
59650;BME280;46162;57.568;25.814;2023-04-22T09:07:41;100745.75;;;12.96;100.00
59650;BME280;46162;57.568;25.814;2023-04-22T09:10:10;100744.72;;;12.97;100.00
59650;BME280;46162;57.568;25.814;2023-04-22T09:12:41;100754.22;;;13.09;100.00
59650;BME280;46162;57.568;25.814;2023-04-22T09:15:11;100745.44;;;13.16;100.00
59650;BME280;46162;57.568;25.814;2023-04-22T09:17:39;100744.41;;;13.17;100.00
59650;BME280;46162;57.568;25.814;2023-04-22T09:20:10;100745.59;;;13.22;100.00
59650;BME280;46162;57.568;25.814;2023-04-22T09:22:41;100732.25;;;13.37;100.00
59650;BME280;46162;57.568;25.814;2023-04-22T09:27:49;100739.38;;;13.54;100.00
59650;BME280;46162;57.568;25.814;2023-04-22T09:30:22;100729.19;;;13.65;100.00
59650;BME280;46162;57.568;25.814;2023-04-22T09:32:52;100731.72;;;13.74;100.00
59650;BME280;46162;57.568;25.814;2023-04-22T09:35:28;100734.25;;;13.84;100.00
59650;BME280;46162;57.568;25.814;2023-04-22T09:37:58;100732.03;;;13.96;100.00
59650;BME280;46162;57.568;25.814;2023-04-22T09:40:28;100729.16;;;13.97;88.50
59650;BME280;46162;57.568;25.814;2023-04-22T09:43:00;100727.97;;;13.92;100.00
59650;BME280;46162;57.568;25.814;2023-04-22T09:45:30;100725.22;;;14.08;100.00
59650;BME280;46162;57.568;25.814;2023-04-22T09:48:02;100716.25;;;14.00;100.00
59650;BME280;46162;57.568;25.814;2023-04-22T09:50:34;100730.44;;;14.18;100.00
59650;BME280;46162;57.568;25.814;2023-04-22T09:53:05;100718.41;;;14.20;100.00
59650;BME280;46162;57.568;25.814;2023-04-22T09:55:36;100723.09;;;14.27;100.00
59650;BME280;46162;57.568;25.814;2023-04-22T09:58:06;100720.75;;;14.32;100.00
59650;BME280;46162;57.568;25.814;2023-04-22T10:00:37;100708.81;;;14.41;100.00
59650;BME280;46162;57.568;25.814;2023-04-22T10:03:07;100714.28;;;14.33;89.64
59650;BME280;46162;57.568;25.814;2023-04-22T10:05:37;100709.78;;;14.48;100.00
59650;BME280;46162;57.568;25.814;2023-04-22T10:08:06;100714.38;;;14.48;98.10
59650;BME280;46162;57.568;25.814;2023-04-22T10:10:37;100720.13;;;14.53;100.00
59650;BME280;46162;57.568;25.814;2023-04-22T10:13:08;100706.72;;;14.51;79.47
59650;BME280;46162;57.568;25.814;2023-04-22T10:15:41;100697.06;;;14.49;90.35
59650;BME280;46162;57.568;25.814;2023-04-22T10:18:12;100701.78;;;14.63;98.56
59650;BME280;46162;57.568;25.814;2023-04-22T10:20:43;100705.53;;;14.62;100.00
59650;BME280;46162;57.568;25.814;2023-04-22T10:23:13;100700.41;;;14.67;96.86
59650;BME280;46162;57.568;25.814;2023-04-22T10:25:41;100698.97;;;14.79;99.63
59650;BME280;46162;57.568;25.814;2023-04-22T10:28:16;100700.34;;;14.75;97.94
59650;BME280;46162;57.568;25.814;2023-04-22T10:30:45;100694.91;;;14.75;84.88
59650;BME280;46162;57.568;25.814;2023-04-22T10:33:36;100691.22;;;14.68;89.79
59650;BME280;46162;57.568;25.814;2023-04-22T10:36:07;100688.09;;;14.79;94.60
59650;BME280;46162;57.568;25.814;2023-04-22T10:38:37;100685.53;;;14.86;100.00
59650;BME280;46162;57.568;25.814;2023-04-22T10:41:12;100683.19;;;14.75;87.51
59650;BME280;46162;57.568;25.814;2023-04-22T10:43:44;100673.91;;;14.92;96.76
59650;BME280;46162;57.568;25.814;2023-04-22T10:49:20;100674.28;;;15.12;94.58
59650;BME280;46162;57.568;25.814;2023-04-22T10:51:50;100670.13;;;15.01;86.77
59650;BME280;46162;57.568;25.814;2023-04-22T10:57:21;100672.75;;;15.10;95.54
59650;BME280;46162;57.568;25.814;2023-04-22T10:59:56;100675.09;;;15.13;93.11
59650;BME280;46162;57.568;25.814;2023-04-22T11:02:25;100666.19;;;15.04;95.10
59650;BME280;46162;57.568;25.814;2023-04-22T11:05:21;100667.91;;;15.20;92.15
59650;BME280;46162;57.568;25.814;2023-04-22T11:07:53;100663.31;;;15.20;91.89
59650;BME280;46162;57.568;25.814;2023-04-22T11:10:37;100666.94;;;15.13;73.65
59650;BME280;46162;57.568;25.814;2023-04-22T11:13:12;100671.97;;;15.24;81.84
59650;BME280;46162;57.568;25.814;2023-04-22T11:15:44;100663.09;;;15.45;83.80
59650;BME280;46162;57.568;25.814;2023-04-22T11:18:16;100664.28;;;15.65;75.58
59650;BME280;46162;57.568;25.814;2023-04-22T11:20:46;100656.41;;;15.33;75.50
59650;BME280;46162;57.568;25.814;2023-04-22T11:23:22;100653.09;;;15.22;71.89
59650;BME280;46162;57.568;25.814;2023-04-22T11:25:55;100668.50;;;15.30;89.06
59650;BME280;46162;57.568;25.814;2023-04-22T11:28:23;100662.16;;;15.38;80.39
59650;BME280;46162;57.568;25.814;2023-04-22T11:31:00;100659.38;;;15.23;73.82
59650;BME280;46162;57.568;25.814;2023-04-22T11:33:31;100655.16;;;15.20;72.40
59650;BME280;46162;57.568;25.814;2023-04-22T11:35:59;100654.06;;;15.30;89.59
59650;BME280;46162;57.568;25.814;2023-04-22T11:38:28;100654.84;;;15.38;91.26
59650;BME280;46162;57.568;25.814;2023-04-22T11:40:57;100653.09;;;15.45;94.15
59650;BME280;46162;57.568;25.814;2023-04-22T11:43:25;100652.59;;;15.42;81.19
59650;BME280;46162;57.568;25.814;2023-04-22T11:45:56;100645.25;;;15.27;83.79
59650;BME280;46162;57.568;25.814;2023-04-22T11:48:25;100639.53;;;15.37;83.53
59650;BME280;46162;57.568;25.814;2023-04-22T11:51:07;100643.94;;;15.23;69.64
59650;BME280;46162;57.568;25.814;2023-04-22T11:53:37;100635.03;;;15.30;90.36
59650;BME280;46162;57.568;25.814;2023-04-22T11:56:07;100643.94;;;15.23;80.10
59650;BME280;46162;57.568;25.814;2023-04-22T11:58:38;100638.53;;;15.38;97.80
59650;BME280;46162;57.568;25.814;2023-04-22T12:01:11;100644.97;;;15.37;82.90
59650;BME280;46162;57.568;25.814;2023-04-22T12:03:40;100630.38;;;15.38;88.25
59650;BME280;46162;57.568;25.814;2023-04-22T12:06:09;100635.31;;;15.35;93.26
59650;BME280;46162;57.568;25.814;2023-04-22T12:08:38;100635.69;;;15.32;92.74
59650;BME280;46162;57.568;25.814;2023-04-22T12:11:11;100633.53;;;15.27;90.75
59650;BME280;46162;57.568;25.814;2023-04-22T12:13:42;100624.81;;;15.32;94.66
59650;BME280;46162;57.568;25.814;2023-04-22T12:16:15;100626.44;;;15.41;82.44
59650;BME280;46162;57.568;25.814;2023-04-22T12:18:48;100619.56;;;15.45;75.60
59650;BME280;46162;57.568;25.814;2023-04-22T12:21:19;100620.91;;;15.49;65.67
59650;BME280;46162;57.568;25.814;2023-04-22T12:23:50;100618.63;;;15.38;76.81
59650;BME280;46162;57.568;25.814;2023-04-22T12:26:19;100625.38;;;15.42;84.56
59650;BME280;46162;57.568;25.814;2023-04-22T12:28:52;100619.63;;;15.75;81.86
59650;BME280;46162;57.568;25.814;2023-04-22T12:31:23;100612.56;;;15.65;98.12
59650;BME280;46162;57.568;25.814;2023-04-22T12:33:52;100617.13;;;15.50;85.77
59650;BME280;46162;57.568;25.814;2023-04-22T12:36:21;100613.69;;;15.56;82.27
59650;BME280;46162;57.568;25.814;2023-04-22T12:38:49;100612.56;;;15.65;85.67
59650;BME280;46162;57.568;25.814;2023-04-22T12:41:18;100607.97;;;15.51;88.86
59650;BME280;46162;57.568;25.814;2023-04-22T12:43:46;100615.75;;;15.54;100.00
59650;BME280;46162;57.568;25.814;2023-04-22T12:46:15;100612.34;;;15.37;94.97
59650;BME280;46162;57.568;25.814;2023-04-22T12:48:45;100608.41;;;15.40;97.92
59650;BME280;46162;57.568;25.814;2023-04-22T12:51:14;100610.47;;;15.38;93.37
59650;BME280;46162;57.568;25.814;2023-04-22T12:53:42;100609.81;;;15.36;93.01
59650;BME280;46162;57.568;25.814;2023-04-22T12:56:11;100607.28;;;15.34;95.04
59650;BME280;46162;57.568;25.814;2023-04-22T12:58:40;100615.72;;;15.39;100.00
59650;BME280;46162;57.568;25.814;2023-04-22T13:01:09;100602.91;;;15.48;99.43
59650;BME280;46162;57.568;25.814;2023-04-22T13:03:37;100601.09;;;15.55;99.15
59650;BME280;46162;57.568;25.814;2023-04-22T13:06:07;100605.97;;;15.60;100.00